sensor_id;sensor_type;location;lat;lon;timestamp;temperature;humidity
43089;DHT22;28709;52.030;5.652;2023-05-20T00:01:03;12.70;99.90
43089;DHT22;28709;52.030;5.652;2023-05-20T00:03:29;12.60;99.90
43089;DHT22;28709;52.030;5.652;2023-05-20T00:05:55;12.60;99.90
43089;DHT22;28709;52.030;5.652;2023-05-20T00:08:20;12.60;99.90
43089;DHT22;28709;52.030;5.652;2023-05-20T00:10:46;12.60;99.90
43089;DHT22;28709;52.030;5.652;2023-05-20T00:13:12;12.50;99.90
43089;DHT22;28709;52.030;5.652;2023-05-20T00:15:37;12.50;99.90
43089;DHT22;28709;52.030;5.652;2023-05-20T00:18:03;12.40;99.90
43089;DHT22;28709;52.030;5.652;2023-05-20T00:20:29;12.40;99.90
43089;DHT22;28709;52.030;5.652;2023-05-20T00:22:55;12.40;99.90
43089;DHT22;28709;52.030;5.652;2023-05-20T00:25:20;12.40;99.90
43089;DHT22;28709;52.030;5.652;2023-05-20T00:27:46;12.30;99.90
43089;DHT22;28709;52.030;5.652;2023-05-20T00:30:12;12.30;99.90
43089;DHT22;28709;52.030;5.652;2023-05-20T00:32:38;12.30;99.90
43089;DHT22;28709;52.030;5.652;2023-05-20T00:35:04;12.30;99.90
43089;DHT22;28709;52.030;5.652;2023-05-20T00:37:30;12.20;99.90
43089;DHT22;28709;52.030;5.652;2023-05-20T00:39:56;12.20;99.90
43089;DHT22;28709;52.030;5.652;2023-05-20T00:42:26;12.20;99.90
43089;DHT22;28709;52.030;5.652;2023-05-20T00:44:53;12.20;99.90
43089;DHT22;28709;52.030;5.652;2023-05-20T00:47:24;12.20;99.90
43089;DHT22;28709;52.030;5.652;2023-05-20T00:49:50;12.20;99.90
43089;DHT22;28709;52.030;5.652;2023-05-20T00:52:20;12.10;99.90
43089;DHT22;28709;52.030;5.652;2023-05-20T00:54:46;12.10;99.90
43089;DHT22;28709;52.030;5.652;2023-05-20T00:57:14;12.10;99.90
43089;DHT22;28709;52.030;5.652;2023-05-20T00:59:41;12.10;99.90
43089;DHT22;28709;52.030;5.652;2023-05-20T01:02:06;12.10;99.90
43089;DHT22;28709;52.030;5.652;2023-05-20T01:04:33;12.10;99.90
43089;DHT22;28709;52.030;5.652;2023-05-20T01:07:01;12.10;99.90
43089;DHT22;28709;52.030;5.652;2023-05-20T01:09:28;12.10;99.90
43089;DHT22;28709;52.030;5.652;2023-05-20T01:14:32;12.00;99.90
43089;DHT22;28709;52.030;5.652;2023-05-20T01:17:01;12.00;99.90
43089;DHT22;28709;52.030;5.652;2023-05-20T01:19:44;12.00;99.90
43089;DHT22;28709;52.030;5.652;2023-05-20T01:22:11;11.90;99.90
43089;DHT22;28709;52.030;5.652;2023-05-20T01:24:45;12.00;99.90
43089;DHT22;28709;52.030;5.652;2023-05-20T01:27:14;11.90;99.90
43089;DHT22;28709;52.030;5.652;2023-05-20T01:29:40;12.00;99.90
43089;DHT22;28709;52.030;5.652;2023-05-20T01:32:11;12.00;99.90
43089;DHT22;28709;52.030;5.652;2023-05-20T01:34:38;11.90;99.90
43089;DHT22;28709;52.030;5.652;2023-05-20T01:37:06;12.00;99.90
43089;DHT22;28709;52.030;5.652;2023-05-20T01:39:34;12.00;99.90
43089;DHT22;28709;52.030;5.652;2023-05-20T01:42:02;12.00;99.90
43089;DHT22;28709;52.030;5.652;2023-05-20T01:44:29;11.90;99.90
43089;DHT22;28709;52.030;5.652;2023-05-20T01:46:55;11.90;99.90
43089;DHT22;28709;52.030;5.652;2023-05-20T01:49:20;11.90;99.90
43089;DHT22;28709;52.030;5.652;2023-05-20T01:51:46;11.90;99.90
43089;DHT22;28709;52.030;5.652;2023-05-20T01:54:12;11.90;99.90
43089;DHT22;28709;52.030;5.652;2023-05-20T01:56:38;11.90;99.90
43089;DHT22;28709;52.030;5.652;2023-05-20T01:59:03;11.90;99.90
43089;DHT22;28709;52.030;5.652;2023-05-20T02:01:29;11.90;99.90
43089;DHT22;28709;52.030;5.652;2023-05-20T02:03:55;11.90;99.90
43089;DHT22;28709;52.030;5.652;2023-05-20T02:06:20;11.90;99.90
43089;DHT22;28709;52.030;5.652;2023-05-20T02:08:46;11.90;99.90
43089;DHT22;28709;52.030;5.652;2023-05-20T02:11:11;11.80;99.90
43089;DHT22;28709;52.030;5.652;2023-05-20T02:13:38;11.80;99.90
43089;DHT22;28709;52.030;5.652;2023-05-20T02:16:04;11.80;99.90
43089;DHT22;28709;52.030;5.652;2023-05-20T02:18:30;11.80;99.90
43089;DHT22;28709;52.030;5.652;2023-05-20T02:21:01;11.80;99.90
43089;DHT22;28709;52.030;5.652;2023-05-20T02:23:28;11.80;99.90
43089;DHT22;28709;52.030;5.652;2023-05-20T02:25:54;11.80;99.90
43089;DHT22;28709;52.030;5.652;2023-05-20T02:28:20;11.80;99.90
43089;DHT22;28709;52.030;5.652;2023-05-20T02:30:46;11.80;99.90
43089;DHT22;28709;52.030;5.652;2023-05-20T02:33:11;11.80;99.90
43089;DHT22;28709;52.030;5.652;2023-05-20T02:35:38;11.80;99.90
43089;DHT22;28709;52.030;5.652;2023-05-20T02:38:04;11.80;99.90
43089;DHT22;28709;52.030;5.652;2023-05-20T02:40:30;11.80;99.90
43089;DHT22;28709;52.030;5.652;2023-05-20T02:42:56;11.80;99.90
43089;DHT22;28709;52.030;5.652;2023-05-20T02:45:22;11.80;99.90
43089;DHT22;28709;52.030;5.652;2023-05-20T02:47:47;11.90;99.90
43089;DHT22;28709;52.030;5.652;2023-05-20T02:50:13;11.80;99.90
43089;DHT22;28709;52.030;5.652;2023-05-20T02:52:39;11.80;99.90
43089;DHT22;28709;52.030;5.652;2023-05-20T02:55:07;11.80;99.90
43089;DHT22;28709;52.030;5.652;2023-05-20T02:57:33;11.80;99.90
43089;DHT22;28709;52.030;5.652;2023-05-20T03:00:03;11.80;99.90
43089;DHT22;28709;52.030;5.652;2023-05-20T03:02:29;11.80;99.90
43089;DHT22;28709;52.030;5.652;2023-05-20T03:04:55;11.80;99.90
43089;DHT22;28709;52.030;5.652;2023-05-20T03:07:21;11.80;99.90
43089;DHT22;28709;52.030;5.652;2023-05-20T03:09:46;11.80;99.90
43089;DHT22;28709;52.030;5.652;2023-05-20T03:12:12;11.80;99.90
43089;DHT22;28709;52.030;5.652;2023-05-20T03:14:38;11.80;99.90
43089;DHT22;28709;52.030;5.652;2023-05-20T03:17:03;11.70;99.90
43089;DHT22;28709;52.030;5.652;2023-05-20T03:19:29;11.70;99.90
43089;DHT22;28709;52.030;5.652;2023-05-20T03:21:55;11.80;99.90
43089;DHT22;28709;52.030;5.652;2023-05-20T03:24:22;11.70;99.90
43089;DHT22;28709;52.030;5.652;2023-05-20T03:26:48;11.70;99.90
43089;DHT22;28709;52.030;5.652;2023-05-20T03:29:14;11.80;99.90
43089;DHT22;28709;52.030;5.652;2023-05-20T03:31:40;11.70;99.90
43089;DHT22;28709;52.030;5.652;2023-05-20T03:34:06;11.70;99.90
43089;DHT22;28709;52.030;5.652;2023-05-20T03:36:32;11.70;99.90
43089;DHT22;28709;52.030;5.652;2023-05-20T03:38:58;11.70;99.90
43089;DHT22;28709;52.030;5.652;2023-05-20T03:41:23;11.60;99.90
43089;DHT22;28709;52.030;5.652;2023-05-20T03:43:49;11.60;99.90
43089;DHT22;28709;52.030;5.652;2023-05-20T03:46:15;11.60;99.90
43089;DHT22;28709;52.030;5.652;2023-05-20T03:48:40;11.60;99.90
43089;DHT22;28709;52.030;5.652;2023-05-20T03:51:06;11.60;99.90
43089;DHT22;28709;52.030;5.652;2023-05-20T03:53:32;11.60;99.90
43089;DHT22;28709;52.030;5.652;2023-05-20T03:55:57;11.60;99.90
43089;DHT22;28709;52.030;5.652;2023-05-20T03:58:23;11.60;99.90
43089;DHT22;28709;52.030;5.652;2023-05-20T04:00:49;11.50;99.90
43089;DHT22;28709;52.030;5.652;2023-05-20T04:03:15;11.50;99.90
43089;DHT22;28709;52.030;5.652;2023-05-20T04:05:40;11.50;99.90
43089;DHT22;28709;52.030;5.652;2023-05-20T04:08:06;11.50;99.90
43089;DHT22;28709;52.030;5.652;2023-05-20T04:10:32;11.50;99.90
43089;DHT22;28709;52.030;5.652;2023-05-20T04:12:58;11.40;99.90
43089;DHT22;28709;52.030;5.652;2023-05-20T04:15:23;11.40;99.90
43089;DHT22;28709;52.030;5.652;2023-05-20T04:17:50;11.40;99.90
43089;DHT22;28709;52.030;5.652;2023-05-20T04:20:17;11.40;99.90
43089;DHT22;28709;52.030;5.652;2023-05-20T04:22:44;11.30;99.90
43089;DHT22;28709;52.030;5.652;2023-05-20T04:25:09;11.30;99.90
43089;DHT22;28709;52.030;5.652;2023-05-20T04:27:35;11.30;99.90
43089;DHT22;28709;52.030;5.652;2023-05-20T04:30:05;11.30;99.90
43089;DHT22;28709;52.030;5.652;2023-05-20T04:32:31;11.30;99.90
43089;DHT22;28709;52.030;5.652;2023-05-20T04:34:58;11.30;99.90
43089;DHT22;28709;52.030;5.652;2023-05-20T04:37:26;11.30;99.90
43089;DHT22;28709;52.030;5.652;2023-05-20T04:39:52;11.30;99.90
43089;DHT22;28709;52.030;5.652;2023-05-20T04:42:18;11.30;99.90
43089;DHT22;28709;52.030;5.652;2023-05-20T04:44:46;11.30;99.90
43089;DHT22;28709;52.030;5.652;2023-05-20T04:47:13;11.40;99.90
43089;DHT22;28709;52.030;5.652;2023-05-20T04:49:39;11.40;99.90
43089;DHT22;28709;52.030;5.652;2023-05-20T04:52:04;11.40;99.90
43089;DHT22;28709;52.030;5.652;2023-05-20T04:54:31;11.50;99.90
43089;DHT22;28709;52.030;5.652;2023-05-20T04:56:57;11.50;99.90
43089;DHT22;28709;52.030;5.652;2023-05-20T04:59:23;11.50;99.90
43089;DHT22;28709;52.030;5.652;2023-05-20T05:01:49;11.60;99.90
43089;DHT22;28709;52.030;5.652;2023-05-20T05:04:14;11.60;99.90
43089;DHT22;28709;52.030;5.652;2023-05-20T05:06:40;11.70;99.90
43089;DHT22;28709;52.030;5.652;2023-05-20T05:09:06;11.70;99.90
43089;DHT22;28709;52.030;5.652;2023-05-20T05:11:32;11.80;99.90
43089;DHT22;28709;52.030;5.652;2023-05-20T05:13:58;11.90;99.90
43089;DHT22;28709;52.030;5.652;2023-05-20T05:16:24;12.00;99.90
43089;DHT22;28709;52.030;5.652;2023-05-20T05:18:50;12.00;99.90
43089;DHT22;28709;52.030;5.652;2023-05-20T05:21:16;12.10;99.90
43089;DHT22;28709;52.030;5.652;2023-05-20T05:23:41;12.20;99.90
43089;DHT22;28709;52.030;5.652;2023-05-20T05:26:07;12.40;99.90
43089;DHT22;28709;52.030;5.652;2023-05-20T05:28:33;12.60;99.90
43089;DHT22;28709;52.030;5.652;2023-05-20T05:30:58;12.80;99.90
43089;DHT22;28709;52.030;5.652;2023-05-20T05:33:26;12.90;99.90
43089;DHT22;28709;52.030;5.652;2023-05-20T05:35:52;13.00;99.90
43089;DHT22;28709;52.030;5.652;2023-05-20T05:38:17;13.10;99.90
43089;DHT22;28709;52.030;5.652;2023-05-20T05:40:43;13.20;99.90
43089;DHT22;28709;52.030;5.652;2023-05-20T05:43:09;13.30;99.90
43089;DHT22;28709;52.030;5.652;2023-05-20T05:45:35;13.40;99.90
43089;DHT22;28709;52.030;5.652;2023-05-20T05:48:00;13.60;99.90
43089;DHT22;28709;52.030;5.652;2023-05-20T05:50:26;13.70;99.90
43089;DHT22;28709;52.030;5.652;2023-05-20T05:52:52;13.80;99.90
43089;DHT22;28709;52.030;5.652;2023-05-20T05:55:17;14.00;99.90
43089;DHT22;28709;52.030;5.652;2023-05-20T05:57:43;14.10;99.90
43089;DHT22;28709;52.030;5.652;2023-05-20T06:00:09;14.30;99.90
43089;DHT22;28709;52.030;5.652;2023-05-20T06:02:35;14.30;99.90
43089;DHT22;28709;52.030;5.652;2023-05-20T06:05:04;14.40;99.90
43089;DHT22;28709;52.030;5.652;2023-05-20T06:07:30;14.50;99.90
43089;DHT22;28709;52.030;5.652;2023-05-20T06:09:56;14.70;99.90
43089;DHT22;28709;52.030;5.652;2023-05-20T06:12:22;14.90;99.90
43089;DHT22;28709;52.030;5.652;2023-05-20T06:14:47;15.00;99.90
43089;DHT22;28709;52.030;5.652;2023-05-20T06:17:13;15.10;99.90
43089;DHT22;28709;52.030;5.652;2023-05-20T06:19:39;15.20;99.90
43089;DHT22;28709;52.030;5.652;2023-05-20T06:22:04;15.30;99.90
43089;DHT22;28709;52.030;5.652;2023-05-20T06:24:30;15.40;99.90
43089;DHT22;28709;52.030;5.652;2023-05-20T06:26:56;15.50;99.90
43089;DHT22;28709;52.030;5.652;2023-05-20T06:29:22;15.70;99.90
43089;DHT22;28709;52.030;5.652;2023-05-20T06:31:48;15.90;99.90
43089;DHT22;28709;52.030;5.652;2023-05-20T06:34:14;16.20;99.90
43089;DHT22;28709;52.030;5.652;2023-05-20T06:36:39;16.30;99.90
43089;DHT22;28709;52.030;5.652;2023-05-20T06:39:05;16.30;99.90
43089;DHT22;28709;52.030;5.652;2023-05-20T06:41:39;16.30;99.90
43089;DHT22;28709;52.030;5.652;2023-05-20T06:44:05;16.30;99.90
43089;DHT22;28709;52.030;5.652;2023-05-20T06:46:32;16.30;99.90
43089;DHT22;28709;52.030;5.652;2023-05-20T06:48:58;16.40;99.90
43089;DHT22;28709;52.030;5.652;2023-05-20T06:51:24;16.50;99.90
43089;DHT22;28709;52.030;5.652;2023-05-20T06:53:49;16.50;99.90
43089;DHT22;28709;52.030;5.652;2023-05-20T06:56:15;16.70;99.90
43089;DHT22;28709;52.030;5.652;2023-05-20T06:58:41;16.90;99.90
43089;DHT22;28709;52.030;5.652;2023-05-20T07:01:07;16.90;99.90
43089;DHT22;28709;52.030;5.652;2023-05-20T07:03:32;17.10;99.90
43089;DHT22;28709;52.030;5.652;2023-05-20T07:05:58;17.20;99.90
43089;DHT22;28709;52.030;5.652;2023-05-20T07:08:24;17.20;99.90
43089;DHT22;28709;52.030;5.652;2023-05-20T07:10:49;17.30;99.90
43089;DHT22;28709;52.030;5.652;2023-05-20T07:13:15;17.30;99.90
43089;DHT22;28709;52.030;5.652;2023-05-20T07:15:41;17.40;99.90
43089;DHT22;28709;52.030;5.652;2023-05-20T07:18:10;17.70;99.90
43089;DHT22;28709;52.030;5.652;2023-05-20T07:20:36;17.90;99.90
43089;DHT22;28709;52.030;5.652;2023-05-20T07:23:02;18.10;99.90
43089;DHT22;28709;52.030;5.652;2023-05-20T07:25:28;18.20;99.90
43089;DHT22;28709;52.030;5.652;2023-05-20T07:27:54;18.30;99.90
43089;DHT22;28709;52.030;5.652;2023-05-20T07:30:20;18.50;99.90
43089;DHT22;28709;52.030;5.652;2023-05-20T07:32:45;18.60;99.30
43089;DHT22;28709;52.030;5.652;2023-05-20T07:35:11;18.60;98.20
43089;DHT22;28709;52.030;5.652;2023-05-20T07:37:37;18.40;97.70
43089;DHT22;28709;52.030;5.652;2023-05-20T07:40:02;18.40;97.60
43089;DHT22;28709;52.030;5.652;2023-05-20T07:42:29;18.40;97.30
43089;DHT22;28709;52.030;5.652;2023-05-20T07:44:55;18.50;97.00
43089;DHT22;28709;52.030;5.652;2023-05-20T07:47:21;18.60;96.70
43089;DHT22;28709;52.030;5.652;2023-05-20T07:49:46;18.70;96.50
43089;DHT22;28709;52.030;5.652;2023-05-20T07:52:12;18.90;95.80
43089;DHT22;28709;52.030;5.652;2023-05-20T07:54:38;18.80;94.90
43089;DHT22;28709;52.030;5.652;2023-05-20T07:57:04;18.70;95.00
43089;DHT22;28709;52.030;5.652;2023-05-20T07:59:30;18.80;95.00
43089;DHT22;28709;52.030;5.652;2023-05-20T08:01:55;18.90;94.90
43089;DHT22;28709;52.030;5.652;2023-05-20T08:04:21;19.10;95.00
43089;DHT22;28709;52.030;5.652;2023-05-20T08:06:47;19.40;94.70
43089;DHT22;28709;52.030;5.652;2023-05-20T08:09:13;19.60;94.10
43089;DHT22;28709;52.030;5.652;2023-05-20T08:11:38;19.80;93.60
43089;DHT22;28709;52.030;5.652;2023-05-20T08:14:04;19.90;93.50
43089;DHT22;28709;52.030;5.652;2023-05-20T08:16:30;20.10;93.40
43089;DHT22;28709;52.030;5.652;2023-05-20T08:18:56;20.40;93.00
43089;DHT22;28709;52.030;5.652;2023-05-20T08:21:22;20.60;92.30
43089;DHT22;28709;52.030;5.652;2023-05-20T08:23:48;20.70;92.00
43089;DHT22;28709;52.030;5.652;2023-05-20T08:26:13;20.80;91.50
43089;DHT22;28709;52.030;5.652;2023-05-20T08:28:39;20.70;89.80
43089;DHT22;28709;52.030;5.652;2023-05-20T08:31:05;20.30;89.10
43089;DHT22;28709;52.030;5.652;2023-05-20T08:33:31;20.00;89.50
43089;DHT22;28709;52.030;5.652;2023-05-20T08:35:57;20.00;90.20
43089;DHT22;28709;52.030;5.652;2023-05-20T08:38:22;20.10;90.30
43089;DHT22;28709;52.030;5.652;2023-05-20T08:40:53;20.30;90.20
43089;DHT22;28709;52.030;5.652;2023-05-20T08:43:19;20.40;89.90
43089;DHT22;28709;52.030;5.652;2023-05-20T08:45:45;20.50;89.00
43089;DHT22;28709;52.030;5.652;2023-05-20T08:48:11;20.40;87.70
43089;DHT22;28709;52.030;5.652;2023-05-20T08:50:37;20.20;88.70
43089;DHT22;28709;52.030;5.652;2023-05-20T08:53:03;20.50;88.80
43089;DHT22;28709;52.030;5.652;2023-05-20T08:55:42;20.60;87.90
43089;DHT22;28709;52.030;5.652;2023-05-20T08:58:11;20.70;87.60
43089;DHT22;28709;52.030;5.652;2023-05-20T09:00:36;20.90;87.20
43089;DHT22;28709;52.030;5.652;2023-05-20T09:03:03;21.10;86.00
43089;DHT22;28709;52.030;5.652;2023-05-20T09:05:28;21.20;86.20
43089;DHT22;28709;52.030;5.652;2023-05-20T09:08:04;21.50;86.30
43089;DHT22;28709;52.030;5.652;2023-05-20T09:10:32;21.70;83.50
43089;DHT22;28709;52.030;5.652;2023-05-20T09:12:59;21.40;82.80
43089;DHT22;28709;52.030;5.652;2023-05-20T09:15:26;21.30;82.70
43089;DHT22;28709;52.030;5.652;2023-05-20T09:17:51;21.20;83.00
43089;DHT22;28709;52.030;5.652;2023-05-20T09:20:17;21.30;82.20
43089;DHT22;28709;52.030;5.652;2023-05-20T09:22:45;21.30;82.20
43089;DHT22;28709;52.030;5.652;2023-05-20T09:25:11;21.40;82.50
43089;DHT22;28709;52.030;5.652;2023-05-20T09:27:38;21.60;81.80
43089;DHT22;28709;52.030;5.652;2023-05-20T09:30:08;21.30;81.30
43089;DHT22;28709;52.030;5.652;2023-05-20T09:32:34;21.00;81.40
43089;DHT22;28709;52.030;5.652;2023-05-20T09:34:59;20.60;81.40
43089;DHT22;28709;52.030;5.652;2023-05-20T09:37:26;20.30;82.00
43089;DHT22;28709;52.030;5.652;2023-05-20T09:40:00;20.20;82.50
43089;DHT22;28709;52.030;5.652;2023-05-20T09:42:49;20.10;81.00
43089;DHT22;28709;52.030;5.652;2023-05-20T09:45:15;20.00;80.30
43089;DHT22;28709;52.030;5.652;2023-05-20T09:47:42;20.10;80.70
43089;DHT22;28709;52.030;5.652;2023-05-20T09:50:09;20.30;80.40
43089;DHT22;28709;52.030;5.652;2023-05-20T09:52:36;20.60;79.80
43089;DHT22;28709;52.030;5.652;2023-05-20T09:55:03;20.70;79.80
43089;DHT22;28709;52.030;5.652;2023-05-20T09:57:33;21.00;78.60
43089;DHT22;28709;52.030;5.652;2023-05-20T10:00:00;21.00;78.20
43089;DHT22;28709;52.030;5.652;2023-05-20T10:02:27;20.90;78.40
43089;DHT22;28709;52.030;5.652;2023-05-20T10:04:54;20.80;78.00
43089;DHT22;28709;52.030;5.652;2023-05-20T10:15:21;20.80;79.40
43089;DHT22;28709;52.030;5.652;2023-05-20T10:20:29;21.10;78.40
43089;DHT22;28709;52.030;5.652;2023-05-20T10:22:58;21.20;79.60
43089;DHT22;28709;52.030;5.652;2023-05-20T10:25:27;21.50;78.60
43089;DHT22;28709;52.030;5.652;2023-05-20T10:28:04;21.80;78.40
43089;DHT22;28709;52.030;5.652;2023-05-20T10:30:32;21.80;77.10
43089;DHT22;28709;52.030;5.652;2023-05-20T10:33:03;21.50;77.50
43089;DHT22;28709;52.030;5.652;2023-05-20T10:35:30;21.30;77.80
43089;DHT22;28709;52.030;5.652;2023-05-20T10:38:08;21.30;78.40
43089;DHT22;28709;52.030;5.652;2023-05-20T10:40:34;21.50;77.80
43089;DHT22;28709;52.030;5.652;2023-05-20T10:43:11;21.60;77.60
43089;DHT22;28709;52.030;5.652;2023-05-20T10:45:51;21.60;77.60
43089;DHT22;28709;52.030;5.652;2023-05-20T10:48:29;21.60;77.40
43089;DHT22;28709;52.030;5.652;2023-05-20T10:51:02;21.50;77.40
43089;DHT22;28709;52.030;5.652;2023-05-20T10:53:41;21.60;77.70
43089;DHT22;28709;52.030;5.652;2023-05-20T10:56:20;21.90;76.60
43089;DHT22;28709;52.030;5.652;2023-05-20T10:58:47;22.00;77.10
43089;DHT22;28709;52.030;5.652;2023-05-20T11:01:13;21.90;75.80
43089;DHT22;28709;52.030;5.652;2023-05-20T11:03:40;21.90;76.40
43089;DHT22;28709;52.030;5.652;2023-05-20T11:06:16;21.80;76.00
43089;DHT22;28709;52.030;5.652;2023-05-20T11:08:43;21.80;76.60
43089;DHT22;28709;52.030;5.652;2023-05-20T11:11:10;22.10;76.50
43089;DHT22;28709;52.030;5.652;2023-05-20T11:13:36;22.00;75.60
43089;DHT22;28709;52.030;5.652;2023-05-20T11:16:03;21.90;76.00
43089;DHT22;28709;52.030;5.652;2023-05-20T11:18:29;21.90;76.70
43089;DHT22;28709;52.030;5.652;2023-05-20T11:20:57;22.30;76.50
43089;DHT22;28709;52.030;5.652;2023-05-20T11:23:24;22.80;76.00
43089;DHT22;28709;52.030;5.652;2023-05-20T11:25:51;23.30;74.80
43089;DHT22;28709;52.030;5.652;2023-05-20T11:28:18;23.00;73.50
43089;DHT22;28709;52.030;5.652;2023-05-20T11:30:46;22.60;74.00
43089;DHT22;28709;52.030;5.652;2023-05-20T11:33:13;22.10;74.40
43089;DHT22;28709;52.030;5.652;2023-05-20T11:35:47;22.00;75.00
43089;DHT22;28709;52.030;5.652;2023-05-20T11:38:14;22.20;75.60
43089;DHT22;28709;52.030;5.652;2023-05-20T11:40:53;22.80;75.70
43089;DHT22;28709;52.030;5.652;2023-05-20T11:43:19;23.00;73.20
43089;DHT22;28709;52.030;5.652;2023-05-20T11:45:47;22.90;72.10
43089;DHT22;28709;52.030;5.652;2023-05-20T11:48:18;22.50;72.40
43089;DHT22;28709;52.030;5.652;2023-05-20T11:50:45;22.40;73.50
43089;DHT22;28709;52.030;5.652;2023-05-20T11:53:19;22.50;73.40
43089;DHT22;28709;52.030;5.652;2023-05-20T11:58:15;22.80;72.50
43089;DHT22;28709;52.030;5.652;2023-05-20T12:00:41;22.60;72.40
43089;DHT22;28709;52.030;5.652;2023-05-20T12:03:07;22.40;72.50
43089;DHT22;28709;52.030;5.652;2023-05-20T12:05:32;22.40;73.00
43089;DHT22;28709;52.030;5.652;2023-05-20T12:07:58;22.20;73.10
43089;DHT22;28709;52.030;5.652;2023-05-20T12:10:24;22.00;73.90
43089;DHT22;28709;52.030;5.652;2023-05-20T12:12:49;22.20;75.20
43089;DHT22;28709;52.030;5.652;2023-05-20T12:15:15;22.60;74.70
43089;DHT22;28709;52.030;5.652;2023-05-20T12:17:49;22.70;73.10
43089;DHT22;28709;52.030;5.652;2023-05-20T12:20:17;22.60;73.10
43089;DHT22;28709;52.030;5.652;2023-05-20T12:22:43;22.40;73.10
43089;DHT22;28709;52.030;5.652;2023-05-20T12:25:16;22.30;73.20
43089;DHT22;28709;52.030;5.652;2023-05-20T12:27:43;22.40;73.90
43089;DHT22;28709;52.030;5.652;2023-05-20T12:30:18;22.50;73.40
43089;DHT22;28709;52.030;5.652;2023-05-20T12:32:45;22.40;73.60
43089;DHT22;28709;52.030;5.652;2023-05-20T12:35:11;22.40;73.70
43089;DHT22;28709;52.030;5.652;2023-05-20T12:37:38;22.50;73.00
43089;DHT22;28709;52.030;5.652;2023-05-20T12:40:05;22.20;73.10
43089;DHT22;28709;52.030;5.652;2023-05-20T12:42:37;22.00;73.50
43089;DHT22;28709;52.030;5.652;2023-05-20T12:45:04;21.80;73.40
43089;DHT22;28709;52.030;5.652;2023-05-20T12:47:33;21.60;73.90
43089;DHT22;28709;52.030;5.652;2023-05-20T12:50:00;21.50;74.40
43089;DHT22;28709;52.030;5.652;2023-05-20T12:52:26;21.60;75.00
43089;DHT22;28709;52.030;5.652;2023-05-20T12:54:56;21.70;74.80
43089;DHT22;28709;52.030;5.652;2023-05-20T12:57:22;21.70;74.40
43089;DHT22;28709;52.030;5.652;2023-05-20T12:59:48;21.70;74.80
43089;DHT22;28709;52.030;5.652;2023-05-20T13:02:14;21.90;74.30
43089;DHT22;28709;52.030;5.652;2023-05-20T13:04:39;21.90;74.20
43089;DHT22;28709;52.030;5.652;2023-05-20T13:07:05;21.90;74.00
43089;DHT22;28709;52.030;5.652;2023-05-20T13:09:31;21.80;74.80
43089;DHT22;28709;52.030;5.652;2023-05-20T13:11:57;21.90;74.90
43089;DHT22;28709;52.030;5.652;2023-05-20T13:14:23;22.00;74.60
43089;DHT22;28709;52.030;5.652;2023-05-20T13:16:51;22.00;74.70
43089;DHT22;28709;52.030;5.652;2023-05-20T13:19:23;21.90;75.00
43089;DHT22;28709;52.030;5.652;2023-05-20T13:21:49;21.90;75.00
43089;DHT22;28709;52.030;5.652;2023-05-20T13:24:16;22.10;75.10
43089;DHT22;28709;52.030;5.652;2023-05-20T13:26:41;22.00;74.90
43089;DHT22;28709;52.030;5.652;2023-05-20T13:29:08;22.00;74.70
43089;DHT22;28709;52.030;5.652;2023-05-20T13:31:34;21.90;74.90
43089;DHT22;28709;52.030;5.652;2023-05-20T13:33:59;21.90;74.90
43089;DHT22;28709;52.030;5.652;2023-05-20T13:36:25;21.70;74.70
43089;DHT22;28709;52.030;5.652;2023-05-20T13:38:51;21.70;75.00
43089;DHT22;28709;52.030;5.652;2023-05-20T13:41:17;21.60;74.50
43089;DHT22;28709;52.030;5.652;2023-05-20T13:43:43;21.40;74.80
43089;DHT22;28709;52.030;5.652;2023-05-20T13:46:08;21.50;75.10
43089;DHT22;28709;52.030;5.652;2023-05-20T13:48:34;21.60;75.50
43089;DHT22;28709;52.030;5.652;2023-05-20T13:51:00;21.60;75.30
43089;DHT22;28709;52.030;5.652;2023-05-20T13:53:26;21.70;75.50
43089;DHT22;28709;52.030;5.652;2023-05-20T13:55:52;21.60;75.40
43089;DHT22;28709;52.030;5.652;2023-05-20T13:58:18;21.50;75.90
43089;DHT22;28709;52.030;5.652;2023-05-20T14:00:43;21.50;75.90
43089;DHT22;28709;52.030;5.652;2023-05-20T14:03:09;21.50;76.00
43089;DHT22;28709;52.030;5.652;2023-05-20T14:05:36;21.70;76.50
43089;DHT22;28709;52.030;5.652;2023-05-20T14:08:02;21.90;76.10
43089;DHT22;28709;52.030;5.652;2023-05-20T14:10:28;21.90;76.00
43089;DHT22;28709;52.030;5.652;2023-05-20T14:12:55;21.80;75.60
43089;DHT22;28709;52.030;5.652;2023-05-20T14:15:21;21.70;76.00
43089;DHT22;28709;52.030;5.652;2023-05-20T14:17:47;21.70;75.70
43089;DHT22;28709;52.030;5.652;2023-05-20T14:20:13;21.60;76.00
43089;DHT22;28709;52.030;5.652;2023-05-20T14:22:39;21.70;76.00
43089;DHT22;28709;52.030;5.652;2023-05-20T14:25:05;21.70;75.50
43089;DHT22;28709;52.030;5.652;2023-05-20T14:27:30;21.60;75.40
43089;DHT22;28709;52.030;5.652;2023-05-20T14:29:56;21.50;75.70
43089;DHT22;28709;52.030;5.652;2023-05-20T14:32:22;21.50;75.80
43089;DHT22;28709;52.030;5.652;2023-05-20T14:34:48;21.50;75.60
43089;DHT22;28709;52.030;5.652;2023-05-20T14:37:13;21.60;75.30
43089;DHT22;28709;52.030;5.652;2023-05-20T14:39:40;21.50;75.50
43089;DHT22;28709;52.030;5.652;2023-05-20T14:42:06;21.40;75.10
43089;DHT22;28709;52.030;5.652;2023-05-20T14:44:31;21.30;75.10
43089;DHT22;28709;52.030;5.652;2023-05-20T14:46:57;21.30;75.60
43089;DHT22;28709;52.030;5.652;2023-05-20T14:49:23;21.50;75.70
43089;DHT22;28709;52.030;5.652;2023-05-20T14:51:48;21.70;75.00
43089;DHT22;28709;52.030;5.652;2023-05-20T14:54:14;21.80;75.10
43089;DHT22;28709;52.030;5.652;2023-05-20T14:56:41;21.70;74.90
43089;DHT22;28709;52.030;5.652;2023-05-20T14:59:07;21.70;74.80
43089;DHT22;28709;52.030;5.652;2023-05-20T15:01:33;21.60;74.90
43089;DHT22;28709;52.030;5.652;2023-05-20T15:03:58;21.50;75.00
43089;DHT22;28709;52.030;5.652;2023-05-20T15:06:24;21.40;75.10
43089;DHT22;28709;52.030;5.652;2023-05-20T15:08:50;21.40;75.60
43089;DHT22;28709;52.030;5.652;2023-05-20T15:11:16;21.40;75.50
43089;DHT22;28709;52.030;5.652;2023-05-20T15:13:42;21.40;75.50
43089;DHT22;28709;52.030;5.652;2023-05-20T15:16:11;21.40;75.40
43089;DHT22;28709;52.030;5.652;2023-05-20T15:18:37;21.50;75.20
43089;DHT22;28709;52.030;5.652;2023-05-20T15:21:02;21.40;75.00
43089;DHT22;28709;52.030;5.652;2023-05-20T15:23:28;21.30;75.30
43089;DHT22;28709;52.030;5.652;2023-05-20T15:25:54;21.30;75.20
43089;DHT22;28709;52.030;5.652;2023-05-20T15:28:20;21.20;75.20
43089;DHT22;28709;52.030;5.652;2023-05-20T15:30:50;21.20;75.10
43089;DHT22;28709;52.030;5.652;2023-05-20T15:33:15;21.10;75.30
43089;DHT22;28709;52.030;5.652;2023-05-20T15:35:41;21.20;75.70
43089;DHT22;28709;52.030;5.652;2023-05-20T15:38:06;21.30;75.80
43089;DHT22;28709;52.030;5.652;2023-05-20T15:40:32;21.30;75.80
43089;DHT22;28709;52.030;5.652;2023-05-20T15:42:58;21.40;75.70